Bobo Dioulasso Airport


Codes: DFOO/BOY
Name: Bobo Dioulasso Airport
City: Bobo Dioulasso
Country: Burkina Faso
Elevation: 1511 ft.
Wikipedia:

Photos at Bobo Dioulasso Airport


   Photos courtesy of SpottingLog. You can add your own sightings and photos by signing up for a free trial today.



No photos found.

Weather at Bobo Dioulasso Airport


Time (UTC)DescriptionTempratureWindCloud coverageVisibilityPressureHumidity
17-Jun-2024 06:00Light Rain24°C7 mph, S95%10000m1011hPa84%
17-Jun-2024 09:00Light Rain26°C9 mph, S93%10000m1012hPa72%
17-Jun-2024 12:00Light Rain31°C7 mph, SE80%10000m1011hPa51%
17-Jun-2024 15:00Light Rain32°C9 mph, SE85%10000m1009hPa45%
17-Jun-2024 18:00Light Rain29°C7 mph, S83%10000m1009hPa58%
17-Jun-2024 21:00Broken Clouds25°C7 mph, S73%10000m1012hPa76%
18-Jun-2024 00:00Broken Clouds24°C7 mph, S79%10000m1013hPa78%
18-Jun-2024 03:00Scattered Clouds24°C9 mph, SW49%10000m1012hPa83%
18-Jun-2024 06:00Light Rain23°C7 mph, SW31%10000m1013hPa88%
18-Jun-2024 09:00Few Clouds28°C9 mph, SW12%10000m1014hPa63%
18-Jun-2024 12:00Scattered Clouds33°C7 mph, S36%10000m1012hPa44%
18-Jun-2024 15:00Broken Clouds35°C7 mph, SE69%10000m1009hPa36%
18-Jun-2024 18:00Broken Clouds33°C4 mph, SE64%10000m1009hPa41%
18-Jun-2024 21:00Light Rain27°C7 mph, S19%10000m1011hPa64%
19-Jun-2024 00:00Scattered Clouds26°C4 mph, SW38%10000m1011hPa70%
19-Jun-2024 03:00Broken Clouds25°C4 mph, S69%10000m1010hPa73%
19-Jun-2024 06:00Light Rain24°C7 mph, SW84%10000m1011hPa82%
19-Jun-2024 09:00Scattered Clouds29°C9 mph, W33%10000m1012hPa58%
19-Jun-2024 12:00Scattered Clouds34°C7 mph, SW45%10000m1010hPa40%
19-Jun-2024 15:00Scattered Clouds35°C4 mph, S45%10000m1008hPa36%
19-Jun-2024 18:00Light Rain33°C7 mph, S65%10000m1007hPa44%
19-Jun-2024 21:00Light Rain29°C7 mph, S29%10000m1008hPa58%
20-Jun-2024 00:00Moderate Rain24°C9 mph, W56%10000m1012hPa84%
20-Jun-2024 03:00Light Rain24°C4 mph, SW100%10000m1009hPa87%
20-Jun-2024 06:00Overcast Clouds23°C7 mph, SW100%10000m1010hPa88%
20-Jun-2024 09:00Overcast Clouds27°C9 mph, SW99%10000m1012hPa67%
20-Jun-2024 12:00Overcast Clouds32°C9 mph, SW99%10000m1010hPa48%
20-Jun-2024 15:00Overcast Clouds34°C7 mph, SW88%10000m1008hPa41%
20-Jun-2024 18:00Broken Clouds33°C4 mph, SW69%10000m1008hPa46%
20-Jun-2024 21:00Light Rain29°C4 mph, SW55%10000m1010hPa59%
21-Jun-2024 00:00Moderate Rain25°C7 mph, SW51%10000m1012hPa81%
21-Jun-2024 03:00Light Rain24°C7 mph, SW51%10000m1010hPa83%
21-Jun-2024 06:00Broken Clouds24°C7 mph, SW67%10000m1011hPa86%
21-Jun-2024 09:00Overcast Clouds28°C11 mph, SW100%10000m1013hPa66%
21-Jun-2024 12:00Broken Clouds33°C9 mph, S78%10000m1011hPa46%
21-Jun-2024 15:00Scattered Clouds35°C7 mph, S28%10000m1009hPa38%
21-Jun-2024 18:00Scattered Clouds32°C9 mph, S48%10000m1007hPa46%
21-Jun-2024 21:00Light Rain28°C7 mph, S25%10000m1011hPa59%
22-Jun-2024 00:00Moderate Rain22°C16 mph, N63%10000m1015hPa92%
22-Jun-2024 03:00Light Rain22°C4 mph, N100%10000m1013hPa89%